Mulungu, Brazil
Current Conditions -  °F | °C
As of 9:00 AM on Thursday 29 Jan 2015 (Local Time) from SBFZ Reporting Station
Broken Clouds Broken Clouds  
Wind Chill: 84°   Ceiling: 2500
Heat Index: 86°   Visibility: 6mi
Dew Point: 66°   Wind: 18mph
Humidity: 55%   Direction: 110°ESE
Pressure: 29.91"   Gusts: NA
Location:  4.31°S, 39°W
Report Text: SBFZ 291200Z 11016KT 9999 BKN025 29/19 Q1013
Loading
Personal Weather Stations






























Interactive Weather Map New forecast layout! Learn more

10-Day Weather Forecast

Advertisements
Track Severe Weather on mobile